N24KM -KBUR
Flight info
| Callsign | N24KM |
|---|---|
| Flight time | N/A |
| Altitude | VFR |
| Route | |
| Aircraft | P28A/L-DOV/C |
Departure
| Time | N/A |
|---|---|
| Airport | - |
Arrival
| Time | 2026-05-04 03:47 |
|---|---|
| Airport | Hollywood Burbank/Bob Hope Airport (KBUR) |
| Time | Latitude | Longitude | Altitude | Speed | Heading |
|---|---|---|---|---|---|
| 2026-05-04 02:59 | 33.20618 | -117.39201 | 943 ft | 118 kts | 251° |
| 2026-05-04 02:59 | 33.20447 | -117.40157 | 1139 ft | 118 kts | 274° |
| 2026-05-04 03:00 | 33.20816 | -117.41024 | 1323 ft | 124 kts | 311° |
| 2026-05-04 03:00 | 33.21544 | -117.41597 | 1400 ft | 126 kts | 328° |
| 2026-05-04 03:00 | 33.22322 | -117.42089 | 1438 ft | 128 kts | 326° |
| 2026-05-04 03:00 | 33.23093 | -117.42601 | 1480 ft | 126 kts | 325° |
| 2026-05-04 03:01 | 33.23835 | -117.43137 | 1471 ft | 126 kts | 323° |
| 2026-05-04 03:01 | 33.24572 | -117.43692 | 1517 ft | 125 kts | 324° |
| 2026-05-04 03:01 | 33.25339 | -117.44213 | 1520 ft | 128 kts | 328° |
| 2026-05-04 03:01 | 33.26107 | -117.44726 | 1558 ft | 125 kts | 326° |
| 2026-05-04 03:02 | 33.26829 | -117.45301 | 1583 ft | 126 kts | 323° |
| 2026-05-04 03:02 | 33.27560 | -117.45906 | 1584 ft | 129 kts | 320° |
| 2026-05-04 03:02 | 33.28295 | -117.46529 | 1583 ft | 130 kts | 321° |
| 2026-05-04 03:02 | 33.29030 | -117.47179 | 1584 ft | 132 kts | 318° |
| 2026-05-04 03:03 | 33.29771 | -117.47823 | 1584 ft | 132 kts | 320° |
| 2026-05-04 03:03 | 33.30509 | -117.48472 | 1586 ft | 132 kts | 319° |
| 2026-05-04 03:03 | 33.31247 | -117.49119 | 1588 ft | 131 kts | 319° |
| 2026-05-04 03:03 | 33.31980 | -117.49764 | 1592 ft | 130 kts | 319° |
| 2026-05-04 03:04 | 33.32701 | -117.50412 | 1589 ft | 129 kts | 314° |
| 2026-05-04 03:04 | 33.33320 | -117.51174 | 1592 ft | 128 kts | 309° |
| 2026-05-04 03:04 | 33.33918 | -117.51947 | 1591 ft | 128 kts | 309° |
| 2026-05-04 03:04 | 33.34520 | -117.52735 | 1594 ft | 128 kts | 308° |
| 2026-05-04 03:05 | 33.35096 | -117.53550 | 1594 ft | 128 kts | 306° |
| 2026-05-04 03:05 | 33.35663 | -117.54368 | 1591 ft | 127 kts | 306° |
| 2026-05-04 03:05 | 33.36226 | -117.55176 | 1593 ft | 126 kts | 306° |
| 2026-05-04 03:05 | 33.36785 | -117.55993 | 1592 ft | 128 kts | 306° |
| 2026-05-04 03:06 | 33.37338 | -117.56818 | 1589 ft | 127 kts | 306° |
| 2026-05-04 03:06 | 33.37704 | -117.57363 | 1589 ft | 127 kts | 306° |
| 2026-05-04 03:06 | 33.38257 | -117.58193 | 1592 ft | 129 kts | 306° |
| 2026-05-04 03:06 | 33.39004 | -117.59308 | 1589 ft | 130 kts | 306° |
| 2026-05-04 03:07 | 33.39573 | -117.60136 | 1596 ft | 128 kts | 306° |
| 2026-05-04 03:07 | 33.40144 | -117.60950 | 1591 ft | 127 kts | 306° |
| 2026-05-04 03:07 | 33.40708 | -117.61753 | 1587 ft | 125 kts | 306° |
| 2026-05-04 03:07 | 33.41262 | -117.62553 | 1591 ft | 125 kts | 306° |
| 2026-05-04 03:08 | 33.41626 | -117.63085 | 1590 ft | 126 kts | 307° |
| 2026-05-04 03:08 | 33.42174 | -117.63918 | 1589 ft | 128 kts | 306° |
| 2026-05-04 03:08 | 33.42726 | -117.64761 | 1591 ft | 129 kts | 305° |
| 2026-05-04 03:08 | 33.43285 | -117.65585 | 1587 ft | 126 kts | 306° |
| 2026-05-04 03:09 | 33.43844 | -117.66377 | 1585 ft | 124 kts | 306° |
| 2026-05-04 03:09 | 33.44588 | -117.67407 | 1584 ft | 124 kts | 309° |
| 2026-05-04 03:09 | 33.45007 | -117.67895 | 1585 ft | 125 kts | 314° |
| 2026-05-04 03:09 | 33.45884 | -117.68804 | 1587 ft | 126 kts | 315° |
| 2026-05-04 03:10 | 33.46326 | -117.69260 | 1587 ft | 123 kts | 316° |
| 2026-05-04 03:10 | 33.46986 | -117.69884 | 1583 ft | 121 kts | 323° |
| 2026-05-04 03:10 | 33.47641 | -117.70479 | 1578 ft | 120 kts | 311° |
| 2026-05-04 03:10 | 33.48238 | -117.71166 | 1580 ft | 119 kts | 312° |
| 2026-05-04 03:11 | 33.48821 | -117.71843 | 1587 ft | 115 kts | 313° |
| 2026-05-04 03:11 | 33.49383 | -117.72512 | 1588 ft | 112 kts | 313° |
| 2026-05-04 03:11 | 33.49941 | -117.73174 | 1589 ft | 114 kts | 311° |
| 2026-05-04 03:11 | 33.50502 | -117.73850 | 1633 ft | 114 kts | 311° |
| 2026-05-04 03:12 | 33.51030 | -117.74478 | 1902 ft | 101 kts | 312° |
| 2026-05-04 03:12 | 33.51498 | -117.75036 | 2148 ft | 88 kts | 310° |
| 2026-05-04 03:12 | 33.51920 | -117.75491 | 2407 ft | 77 kts | 311° |
| 2026-05-04 03:12 | 33.52304 | -117.75907 | 2588 ft | 77 kts | 311° |
| 2026-05-04 03:13 | 33.52752 | -117.76407 | 2609 ft | 98 kts | 312° |
| 2026-05-04 03:13 | 33.53268 | -117.77015 | 2608 ft | 112 kts | 311° |
| 2026-05-04 03:13 | 33.53832 | -117.77691 | 2604 ft | 117 kts | 311° |
| 2026-05-04 03:13 | 33.54416 | -117.78379 | 2597 ft | 118 kts | 312° |
| 2026-05-04 03:14 | 33.54996 | -117.79071 | 2596 ft | 119 kts | 311° |
| 2026-05-04 03:14 | 33.55597 | -117.79771 | 2594 ft | 121 kts | 311° |
| 2026-05-04 03:14 | 33.56210 | -117.80470 | 2591 ft | 121 kts | 312° |
| 2026-05-04 03:14 | 33.56800 | -117.81169 | 2596 ft | 121 kts | 312° |
| 2026-05-04 03:15 | 33.57392 | -117.81900 | 2597 ft | 123 kts | 311° |
| 2026-05-04 03:15 | 33.57993 | -117.82628 | 2596 ft | 125 kts | 311° |
| 2026-05-04 03:15 | 33.58605 | -117.83358 | 2595 ft | 124 kts | 310° |
| 2026-05-04 03:15 | 33.59214 | -117.84076 | 2598 ft | 123 kts | 311° |
| 2026-05-04 03:16 | 33.59832 | -117.84806 | 2598 ft | 126 kts | 311° |
| 2026-05-04 03:16 | 33.60402 | -117.85590 | 2589 ft | 124 kts | 303° |
| 2026-05-04 03:16 | 33.60920 | -117.86411 | 2594 ft | 123 kts | 303° |
| 2026-05-04 03:16 | 33.61423 | -117.87241 | 2605 ft | 123 kts | 303° |
| 2026-05-04 03:17 | 33.61926 | -117.88073 | 2606 ft | 123 kts | 302° |
| 2026-05-04 03:17 | 33.62453 | -117.88888 | 2606 ft | 123 kts | 303° |
| 2026-05-04 03:17 | 33.62977 | -117.89702 | 2605 ft | 123 kts | 303° |
| 2026-05-04 03:17 | 33.63404 | -117.90553 | 2608 ft | 120 kts | 291° |
| 2026-05-04 03:18 | 33.63731 | -117.91473 | 2605 ft | 121 kts | 288° |
| 2026-05-04 03:18 | 33.64014 | -117.92422 | 2605 ft | 121 kts | 287° |
| 2026-05-04 03:18 | 33.64295 | -117.93369 | 2606 ft | 120 kts | 286° |
| 2026-05-04 03:18 | 33.64595 | -117.94306 | 2610 ft | 121 kts | 285° |
| 2026-05-04 03:19 | 33.64924 | -117.95248 | 2609 ft | 124 kts | 287° |
| 2026-05-04 03:19 | 33.65248 | -117.96209 | 2608 ft | 124 kts | 287° |
| 2026-05-04 03:19 | 33.65575 | -117.97166 | 2607 ft | 123 kts | 287° |
| 2026-05-04 03:19 | 33.65905 | -117.98109 | 2604 ft | 122 kts | 287° |
| 2026-05-04 03:20 | 33.66232 | -117.99043 | 2603 ft | 121 kts | 287° |
| 2026-05-04 03:20 | 33.66570 | -117.99978 | 2606 ft | 125 kts | 287° |
| 2026-05-04 03:20 | 33.66904 | -118.00961 | 2609 ft | 129 kts | 286° |
| 2026-05-04 03:20 | 33.67256 | -118.01973 | 2605 ft | 133 kts | 287° |
| 2026-05-04 03:21 | 33.67600 | -118.03007 | 2603 ft | 134 kts | 287° |
| 2026-05-04 03:21 | 33.67946 | -118.04037 | 2603 ft | 132 kts | 287° |
| 2026-05-04 03:21 | 33.68292 | -118.05058 | 2604 ft | 132 kts | 288° |
| 2026-05-04 03:21 | 33.68620 | -118.06100 | 2601 ft | 134 kts | 287° |
| 2026-05-04 03:22 | 33.68946 | -118.07141 | 2602 ft | 131 kts | 287° |
| 2026-05-04 03:22 | 33.69251 | -118.08154 | 2599 ft | 128 kts | 287° |
| 2026-05-04 03:22 | 33.69512 | -118.09165 | 2597 ft | 126 kts | 281° |
| 2026-05-04 03:22 | 33.69447 | -118.10169 | 2578 ft | 128 kts | 239° |
| 2026-05-04 03:23 | 33.68969 | -118.11044 | 2581 ft | 125 kts | 239° |
| 2026-05-04 03:23 | 33.68471 | -118.11901 | 2582 ft | 125 kts | 237° |
| 2026-05-04 03:23 | 33.68320 | -118.12866 | 2562 ft | 124 kts | 289° |
| 2026-05-04 03:23 | 33.68791 | -118.13728 | 2573 ft | 124 kts | 303° |
| 2026-05-04 03:24 | 33.69381 | -118.14498 | 2577 ft | 126 kts | 311° |
| 2026-05-04 03:24 | 33.69996 | -118.15259 | 2578 ft | 128 kts | 311° |
| 2026-05-04 03:24 | 33.70622 | -118.16013 | 2579 ft | 128 kts | 312° |
| 2026-05-04 03:24 | 33.71293 | -118.16722 | 2579 ft | 129 kts | 314° |
| 2026-05-04 03:25 | 33.71981 | -118.17389 | 2580 ft | 129 kts | 315° |
| 2026-05-04 03:25 | 33.72660 | -118.18087 | 2577 ft | 128 kts | 316° |
| 2026-05-04 03:25 | 33.73350 | -118.18768 | 2577 ft | 129 kts | 316° |
| 2026-05-04 03:25 | 33.74054 | -118.19454 | 2587 ft | 130 kts | 318° |
| 2026-05-04 03:26 | 33.74754 | -118.20133 | 2587 ft | 129 kts | 317° |
| 2026-05-04 03:26 | 33.75452 | -118.20811 | 2593 ft | 130 kts | 316° |
| 2026-05-04 03:26 | 33.76157 | -118.21495 | 2589 ft | 131 kts | 317° |
| 2026-05-04 03:26 | 33.76865 | -118.22181 | 2590 ft | 130 kts | 316° |
| 2026-05-04 03:27 | 33.77566 | -118.22861 | 2587 ft | 130 kts | 317° |
| 2026-05-04 03:27 | 33.78272 | -118.23545 | 2587 ft | 131 kts | 316° |
| 2026-05-04 03:27 | 33.78979 | -118.24232 | 2543 ft | 133 kts | 316° |
| 2026-05-04 03:27 | 33.79706 | -118.24937 | 2517 ft | 133 kts | 316° |
| 2026-05-04 03:28 | 33.80424 | -118.25633 | 2516 ft | 132 kts | 316° |
| 2026-05-04 03:28 | 33.81144 | -118.26333 | 2512 ft | 134 kts | 316° |
| 2026-05-04 03:28 | 33.81798 | -118.27085 | 2495 ft | 127 kts | 293° |
| 2026-05-04 03:28 | 33.82190 | -118.28014 | 2503 ft | 127 kts | 295° |
| 2026-05-04 03:29 | 33.82616 | -118.28950 | 2508 ft | 128 kts | 297° |
| 2026-05-04 03:29 | 33.83198 | -118.29778 | 2506 ft | 131 kts | 308° |
| 2026-05-04 03:29 | 33.83852 | -118.30540 | 2501 ft | 131 kts | 314° |
| 2026-05-04 03:29 | 33.84535 | -118.31260 | 2505 ft | 131 kts | 314° |
| 2026-05-04 03:30 | 33.85217 | -118.31991 | 2500 ft | 131 kts | 313° |
| 2026-05-04 03:30 | 33.85885 | -118.32722 | 2502 ft | 129 kts | 314° |
| 2026-05-04 03:30 | 33.86565 | -118.33445 | 2503 ft | 132 kts | 315° |
| 2026-05-04 03:30 | 33.87287 | -118.34141 | 2502 ft | 133 kts | 317° |
| 2026-05-04 03:31 | 33.88037 | -118.34765 | 2508 ft | 133 kts | 322° |
| 2026-05-04 03:31 | 33.88799 | -118.35402 | 2509 ft | 134 kts | 319° |
| 2026-05-04 03:31 | 33.89567 | -118.36047 | 2508 ft | 135 kts | 320° |
| 2026-05-04 03:31 | 33.90337 | -118.36700 | 2514 ft | 137 kts | 320° |
| 2026-05-04 03:32 | 33.91114 | -118.37352 | 2516 ft | 135 kts | 320° |
| 2026-05-04 03:32 | 33.91888 | -118.37972 | 2518 ft | 132 kts | 321° |
| 2026-05-04 03:32 | 33.92644 | -118.38586 | 2517 ft | 131 kts | 319° |
| 2026-05-04 03:32 | 33.93402 | -118.39187 | 2515 ft | 130 kts | 321° |
| 2026-05-04 03:33 | 33.94144 | -118.39806 | 2514 ft | 130 kts | 319° |
| 2026-05-04 03:33 | 33.94889 | -118.40420 | 2514 ft | 129 kts | 320° |
| 2026-05-04 03:33 | 33.95619 | -118.41009 | 2512 ft | 127 kts | 320° |
| 2026-05-04 03:33 | 33.96355 | -118.41600 | 2512 ft | 127 kts | 320° |
| 2026-05-04 03:34 | 33.97083 | -118.42207 | 2514 ft | 128 kts | 321° |
| 2026-05-04 03:34 | 33.97811 | -118.42835 | 2512 ft | 129 kts | 319° |
| 2026-05-04 03:34 | 33.98548 | -118.43449 | 2512 ft | 129 kts | 321° |
| 2026-05-04 03:34 | 33.99291 | -118.44083 | 2513 ft | 134 kts | 320° |
| 2026-05-04 03:35 | 34.00061 | -118.44735 | 2515 ft | 136 kts | 321° |
| 2026-05-04 03:35 | 34.00830 | -118.45411 | 2516 ft | 138 kts | 321° |
| 2026-05-04 03:35 | 34.01595 | -118.46103 | 2530 ft | 136 kts | 318° |
| 2026-05-04 03:35 | 34.02223 | -118.46921 | 2573 ft | 131 kts | 302° |
| 2026-05-04 03:36 | 34.02717 | -118.47828 | 2577 ft | 128 kts | 298° |
| 2026-05-04 03:36 | 34.03170 | -118.48753 | 2631 ft | 128 kts | 295° |
| 2026-05-04 03:36 | 34.03567 | -118.49712 | 2747 ft | 128 kts | 290° |
| 2026-05-04 03:36 | 34.03910 | -118.50714 | 2797 ft | 131 kts | 289° |
| 2026-05-04 03:37 | 34.04257 | -118.51715 | 2850 ft | 131 kts | 288° |
| 2026-05-04 03:37 | 34.04529 | -118.52761 | 2917 ft | 130 kts | 281° |
| 2026-05-04 03:37 | 34.04753 | -118.53812 | 3034 ft | 130 kts | 280° |
| 2026-05-04 03:37 | 34.04936 | -118.54881 | 3146 ft | 131 kts | 279° |
| 2026-05-04 03:38 | 34.05245 | -118.55920 | 3216 ft | 135 kts | 303° |
| 2026-05-04 03:38 | 34.05993 | -118.56598 | 3356 ft | 135 kts | 334° |
| 2026-05-04 03:38 | 34.06900 | -118.56948 | 3416 ft | 138 kts | 343° |
| 2026-05-04 03:38 | 34.07834 | -118.57244 | 3427 ft | 140 kts | 338° |
| 2026-05-04 03:39 | 34.08750 | -118.57673 | 3430 ft | 142 kts | 337° |
| 2026-05-04 03:39 | 34.09680 | -118.58111 | 3433 ft | 145 kts | 336° |
| 2026-05-04 03:39 | 34.10628 | -118.58563 | 3401 ft | 148 kts | 336° |
| 2026-05-04 03:39 | 34.11591 | -118.59012 | 3400 ft | 149 kts | 337° |
| 2026-05-04 03:40 | 34.12557 | -118.59464 | 3399 ft | 149 kts | 337° |
| 2026-05-04 03:40 | 34.13502 | -118.59911 | 3401 ft | 147 kts | 336° |
| 2026-05-04 03:40 | 34.14475 | -118.60276 | 3446 ft | 145 kts | 357° |
| 2026-05-04 03:40 | 34.15440 | -118.59892 | 3415 ft | 151 kts | 30° |
| 2026-05-04 03:41 | 34.16363 | -118.59244 | 3354 ft | 153 kts | 28° |
| 2026-05-04 03:41 | 34.17229 | -118.58508 | 3333 ft | 153 kts | 40° |
| 2026-05-04 03:41 | 34.18013 | -118.57631 | 3302 ft | 154 kts | 47° |
| 2026-05-04 03:41 | 34.18652 | -118.56594 | 3274 ft | 155 kts | 62° |
| 2026-05-04 03:42 | 34.19094 | -118.55390 | 3248 ft | 158 kts | 71° |
| 2026-05-04 03:42 | 34.19432 | -118.54157 | 3329 ft | 153 kts | 79° |
| 2026-05-04 03:42 | 34.19655 | -118.52903 | 3395 ft | 152 kts | 86° |
| 2026-05-04 03:42 | 34.19787 | -118.51637 | 3419 ft | 152 kts | 89° |
| 2026-05-04 03:43 | 34.19850 | -118.50351 | 3355 ft | 155 kts | 91° |
| 2026-05-04 03:43 | 34.19834 | -118.49055 | 3221 ft | 158 kts | 93° |
| 2026-05-04 03:43 | 34.19839 | -118.47777 | 3035 ft | 144 kts | 90° |
| 2026-05-04 03:43 | 34.19856 | -118.46614 | 2830 ft | 134 kts | 91° |
| 2026-05-04 03:44 | 34.19867 | -118.45566 | 2722 ft | 114 kts | 92° |
| 2026-05-04 03:44 | 34.19874 | -118.44661 | 2574 ft | 105 kts | 92° |
| 2026-05-04 03:44 | 34.19882 | -118.43780 | 2445 ft | 104 kts | 93° |
| 2026-05-04 03:44 | 34.19875 | -118.42911 | 2280 ft | 104 kts | 95° |
| 2026-05-04 03:45 | 34.19857 | -118.42033 | 2094 ft | 105 kts | 97° |
| 2026-05-04 03:45 | 34.19843 | -118.41157 | 1875 ft | 104 kts | 94° |
| 2026-05-04 03:45 | 34.19830 | -118.40295 | 1639 ft | 104 kts | 95° |
| 2026-05-04 03:45 | 34.19828 | -118.39452 | 1324 ft | 96 kts | 94° |
| 2026-05-04 03:46 | 34.19823 | -118.38680 | 1091 ft | 88 kts | 98° |
| 2026-05-04 03:46 | 34.19804 | -118.37981 | 952 ft | 81 kts | 97° |
| 2026-05-04 03:46 | 34.19804 | -118.37294 | 837 ft | 83 kts | 97° |
| 2026-05-04 03:46 | 34.19793 | -118.36625 | 728 ft | 74 kts | 94° |
| 2026-05-04 03:47 | 34.19788 | -118.36148 | 711 ft | 32 kts | 95° |
| 2026-05-04 03:47 | 34.19841 | -118.36025 | 711 ft | 14 kts | 0° |
| 2026-05-04 03:47 | 34.19929 | -118.36026 | 712 ft | 9 kts | 8° |
| 2026-05-04 03:47 | 34.19958 | -118.35994 | 715 ft | 4 kts | 126° |
| 2026-05-04 03:48 | 34.19947 | -118.35988 | 713 ft | 0 kts | 64° |
| 2026-05-04 03:48 | 34.19949 | -118.35986 | 714 ft | 0 kts | 8° |